Etusivu
METAR-TAF:

METAR-TAF

Lentoasemat :

Trollhättan-Vänersborg, Ruotsi

Leveyspiiri: 58-19N, Pituuspiiri: 012-21E, korkeus merenpinnasta: 41 m

Tämänhetkinen sää

Tämä raportti tehtiin 40 minuuttia sitten, kello 03.50 UTC
Tuuli 4 kn etelästä, vaihdellen etelän ja lounaan välillä
Lämpötila 16°C
Kosteus 88%
Ilmanpaine 1024 hPa
Näkyvyys 10 km tai enemmän

METAR: ESGT 240350Z AUTO 19004KT 170V230 9999 OVC017/// 16/14 Q1024

Aika: 06:30 (04:30 UTC)

Sääennuste

Tämä raportti tehtiin 14 tuntia ja 0 minuuttia sitten, kello 14.30 UTC
Ennuste voimassa 23. päivästä klo 15 UTC - 23. päivään klo 19 UTC
Tuuli 13 kn lännestä/lounaasta
Näkyvyys 10 km tai enemmän
Hajanaisia pilviä 2500 ft:n korkeudessa

TAF: ESGT 231430Z 2315/2319 25013KT 9999 SCT025

Säähavainnot ja -ennusteet yli 4000 lentoasemalta (METAR- ja TAF-raportit).

Käytössä olevat sääasemat on merkitty karttaan keltaisilla ja punaisilla pisteillä.

Aseta hiiri pisteen päälle nähdäksesi sääaseman nimen.

Klikkaa sitten nähdäksesi säähavainnot ja -ennusteet.

Kartan vaihtaminen: klikkaa mustalla rastilla varustettuja vihreitä pisteitä, niin voit zoomata sisään; viivalla varustettua vihreää pistettä, niin voit zoomata ulos tai vihreitä nuolia, niin pääset viereisille kartoille.


METAR-TAF: